Time;durP1;ratioP1;P1;durP2;ratioP2;P2;SDS_P1;SDS_P2;PMS_P1;PMS_P2;Temp;Humidity;BMP_temperature;BMP_pressure;BME280_temperature;BME280_humidity;BME280_pressure;Samples;Min_cycle;Max_cycle;Signal;HPM_P1;HPM_P2
2022/11/04 00:01:08;;;;;;;13.93;10.07;;;6.20;99.90;;;;;;8411457;28;20210;-69
2022/11/04 00:05:09;;;;;;;24.77;12.70;;;6.00;99.90;;;;;;8415685;28;20211;-70
2022/11/04 00:09:12;;;;;;;32.60;16.37;;;6.00;99.90;;;;;;8394581;28;20212;-69
2022/11/04 00:13:13;;;;;;;19.87;11.53;;;6.00;99.90;;;;;;8409687;28;20278;-69
2022/11/04 00:17:23;;;;;;;15.13;9.50;;;5.80;99.90;;;;;;8413465;28;20219;-69
2022/11/04 00:30:05;;;;;;;17.60;10.70;;;5.60;99.90;;;;;;8414806;28;20346;-71
2022/11/04 00:34:05;;;;;;;26.43;13.50;;;5.50;99.90;;;;;;8393413;28;20192;-70
2022/11/04 00:38:06;;;;;;;38.43;19.27;;;5.50;99.90;;;;;;8392115;28;20258;-70
2022/11/04 00:42:07;;;;;;;37.33;20.70;;;5.50;99.90;;;;;;8411215;28;20193;-70
2022/11/04 00:46:08;;;;;;;19.63;12.47;;;5.60;99.90;;;;;;8391960;28;20233;-70
2022/11/04 00:50:08;;;;;;;19.70;11.17;;;5.40;99.90;;;;;;8407989;28;20184;-70
2022/11/04 00:54:09;;;;;;;18.00;11.57;;;5.30;99.90;;;;;;8407864;28;20184;-70
2022/11/04 00:58:10;;;;;;;21.97;13.00;;;5.30;99.90;;;;;;8387864;28;20277;-70
2022/11/04 01:02:12;;;;;;;27.70;15.40;;;5.30;99.90;;;;;;8409685;28;20180;-70
2022/11/04 01:06:13;;;;;;;23.70;14.30;;;5.30;99.90;;;;;;8404601;28;20192;-70
2022/11/04 01:10:14;;;;;;;32.63;18.50;;;5.20;99.90;;;;;;8388892;28;20331;-71
2022/11/04 01:14:15;;;;;;;26.10;15.57;;;5.10;99.90;;;;;;8395815;28;20429;-69
2022/11/04 01:18:16;;;;;;;30.23;15.47;;;5.10;99.90;;;;;;8419040;28;20207;-68
2022/11/04 01:22:16;;;;;;;34.13;16.57;;;5.00;99.90;;;;;;8399143;28;20200;-69
2022/11/04 01:26:20;;;;;;;22.37;12.97;;;4.90;99.90;;;;;;8402110;28;20195;-69
2022/11/04 01:30:21;;;;;;;21.37;12.83;;;4.80;99.90;;;;;;8416826;28;20181;-69
2022/11/04 01:34:22;;;;;;;18.37;10.50;;;4.70;99.90;;;;;;8399535;28;20191;-69
2022/11/04 01:38:22;;;;;;;14.67;8.97;;;4.60;99.90;;;;;;8399778;28;20208;-69
2022/11/04 01:42:23;;;;;;;13.77;8.87;;;4.50;99.90;;;;;;8400559;28;20182;-68
2022/11/04 01:46:37;;;;;;;13.07;8.27;;;4.40;99.90;;;;;;8399527;28;20184;-70
2022/11/04 01:50:38;;;;;;;11.70;7.80;;;4.30;99.90;;;;;;8399945;28;20189;-69
2022/11/04 01:54:42;;;;;;;11.03;7.43;;;4.20;99.90;;;;;;8399829;28;20742;-69
2022/11/04 01:58:50;;;;;;;11.43;7.83;;;4.10;99.90;;;;;;8411888;28;20262;-70
2022/11/04 02:02:58;;;;;;;12.83;8.40;;;4.10;99.90;;;;;;8397719;28;20297;-70
2022/11/04 02:07:01;;;;;;;13.43;7.87;;;4.00;99.90;;;;;;8418134;28;20250;-70
2022/11/04 02:11:03;;;;;;;13.23;9.03;;;4.00;99.90;;;;;;8397030;28;20195;-69
2022/11/04 02:15:04;;;;;;;19.60;11.43;;;3.90;99.90;;;;;;8397529;28;20227;-70
2022/11/04 02:19:05;;;;;;;16.13;9.73;;;3.90;99.90;;;;;;8397575;28;20184;-70
2022/11/04 02:23:24;;;;;;;13.70;8.47;;;3.80;99.90;;;;;;8398506;28;20336;-69
2022/11/04 02:27:45;;;;;;;12.67;7.80;;;3.70;99.90;;;;;;8414386;28;20244;-71
2022/11/04 02:32:04;;;;;;;13.27;7.97;;;3.60;99.90;;;;;;8406165;28;20222;-70
2022/11/04 02:36:20;;;;;;;15.03;9.60;;;3.50;99.90;;;;;;8413460;28;20216;-69
2022/11/04 02:40:38;;;;;;;16.53;9.87;;;3.50;99.90;;;;;;8415476;28;20233;-70
2022/11/04 02:44:56;;;;;;;16.43;10.17;;;3.60;99.90;;;;;;8415042;28;20176;-69
2022/11/04 02:49:03;;;;;;;12.67;9.10;;;3.60;99.90;;;;;;8397464;28;20187;-70
2022/11/04 02:53:50;;;;;;;14.13;9.20;;;3.50;99.90;;;;;;8414690;28;20183;-70
2022/11/04 02:57:54;;;;;;;12.93;8.60;;;3.40;99.90;;;;;;8370386;28;20214;-70
2022/11/04 03:01:57;;;;;;;15.63;10.57;;;3.40;99.90;;;;;;8415300;28;20174;-70
2022/11/04 03:06:00;;;;;;;18.77;11.80;;;3.40;99.90;;;;;;8414461;28;20185;-70
2022/11/04 03:10:07;;;;;;;17.87;10.13;;;3.50;99.90;;;;;;8416064;28;20188;-70
2022/11/04 03:14:17;;;;;;;14.30;9.23;;;3.40;99.90;;;;;;8397581;28;20192;-70
2022/11/04 03:18:31;;;;;;;17.47;10.10;;;3.40;99.90;;;;;;8397340;28;20233;-70
2022/11/04 03:22:35;;;;;;;12.60;8.63;;;3.40;99.90;;;;;;8416183;28;20183;-69
2022/11/04 03:26:59;;;;;;;14.73;8.93;;;3.40;99.90;;;;;;8393930;28;20276;-70
2022/11/04 03:31:03;;;;;;;16.37;10.20;;;3.50;99.90;;;;;;8414308;28;20184;-70
2022/11/04 03:35:05;;;;;;;14.77;9.37;;;3.60;99.90;;;;;;8412405;28;20192;-69
2022/11/04 03:39:06;;;;;;;19.17;10.93;;;3.60;99.90;;;;;;8412660;28;20458;-69
2022/11/04 03:43:11;;;;;;;23.33;13.50;;;3.60;99.90;;;;;;8394568;28;20182;-70
2022/11/04 03:47:13;;;;;;;18.00;11.20;;;3.60;99.90;;;;;;8410669;28;20173;-69
2022/11/04 03:51:13;;;;;;;17.17;10.97;;;3.60;99.90;;;;;;8397513;28;20212;-70
2022/11/04 03:55:14;;;;;;;21.20;12.23;;;3.50;99.90;;;;;;8394510;28;20203;-70
2022/11/04 03:59:24;;;;;;;20.67;12.73;;;3.50;99.90;;;;;;8393182;28;20211;-69
2022/11/04 04:03:36;;;;;;;18.17;10.93;;;3.50;99.90;;;;;;8413924;28;20194;-70
2022/11/04 04:07:51;;;;;;;16.10;10.10;;;3.40;99.90;;;;;;8396110;28;20194;-70
2022/11/04 04:12:05;;;;;;;17.47;10.47;;;3.40;99.90;;;;;;8395777;28;20216;-70
2022/11/04 04:16:16;;;;;;;16.43;9.73;;;3.30;99.90;;;;;;8411118;28;20216;-70
2022/11/04 04:20:21;;;;;;;15.80;9.90;;;3.30;99.90;;;;;;8410481;28;20188;-70
2022/11/04 04:28:45;;;;;;;16.67;10.50;;;3.30;99.90;;;;;;8412167;28;20201;-71
2022/11/04 04:33:04;;;;;;;16.33;9.70;;;3.30;99.90;;;;;;8408063;28;20254;-70
2022/11/04 04:37:17;;;;;;;18.30;11.20;;;3.40;99.90;;;;;;8393125;28;20218;-71
2022/11/04 04:45:39;;;;;;;18.30;11.43;;;3.40;99.90;;;;;;8414752;28;20229;-70
2022/11/04 04:49:54;;;;;;;18.30;10.07;;;3.40;99.90;;;;;;8421610;28;20181;-70
2022/11/04 04:53:55;;;;;;;15.67;9.47;;;3.40;99.90;;;;;;8400592;28;20183;-70
2022/11/04 04:57:56;;;;;;;15.40;9.00;;;3.30;99.90;;;;;;8419438;28;20241;-70
2022/11/04 05:01:57;;;;;;;18.47;10.93;;;3.30;99.90;;;;;;8397700;28;20189;-70
2022/11/04 05:05:59;;;;;;;15.50;9.83;;;3.30;99.90;;;;;;8421243;28;20211;-71
2022/11/04 05:09:59;;;;;;;16.57;9.93;;;3.30;99.90;;;;;;8404561;28;20189;-69
2022/11/04 05:14:00;;;;;;;12.60;9.03;;;3.20;99.90;;;;;;8419209;28;20254;-70
2022/11/04 05:18:02;;;;;;;15.30;9.37;;;3.20;99.90;;;;;;8416645;28;20209;-70
2022/11/04 05:22:03;;;;;;;14.53;9.30;;;3.20;99.90;;;;;;8403366;28;20268;-70
2022/11/04 05:26:04;;;;;;;14.50;9.87;;;3.10;99.90;;;;;;8400247;28;20296;-69
2022/11/04 05:30:05;;;;;;;20.43;11.73;;;3.20;99.90;;;;;;8398521;28;20181;-69
2022/11/04 05:34:10;;;;;;;30.53;13.60;;;3.30;99.90;;;;;;8404233;28;20210;-69
2022/11/04 05:38:10;;;;;;;35.73;17.23;;;3.30;99.90;;;;;;8401816;28;20214;-69
2022/11/04 05:42:11;;;;;;;33.50;20.07;;;3.20;99.90;;;;;;8400986;28;20194;-69
2022/11/04 05:46:12;;;;;;;45.40;20.57;;;3.80;99.90;;;;;;8405305;28;20192;-69
2022/11/04 05:50:12;;;;;;;40.53;20.93;;;4.30;99.90;;;;;;8399266;28;20204;-69
2022/11/04 05:54:13;;;;;;;40.40;22.03;;;4.60;99.90;;;;;;8418005;28;20193;-69
2022/11/04 05:58:14;;;;;;;37.27;21.30;;;4.80;99.90;;;;;;8396514;28;20528;-69
2022/11/04 06:02:15;;;;;;;48.70;23.03;;;4.80;99.90;;;;;;8400532;28;20210;-69
2022/11/04 06:06:15;;;;;;;44.53;24.97;;;4.90;99.90;;;;;;8418879;28;20770;-69
2022/11/04 06:10:16;;;;;;;39.80;22.43;;;5.00;99.90;;;;;;8397594;28;20185;-69
2022/11/04 06:14:17;;;;;;;38.57;22.83;;;5.00;99.90;;;;;;8418419;28;20252;-68
2022/11/04 06:18:18;;;;;;;39.60;22.40;;;5.10;99.90;;;;;;8398153;28;20239;-69
2022/11/04 06:22:19;;;;;;;42.10;22.43;;;5.10;99.90;;;;;;8419113;28;20185;-68
2022/11/04 06:26:20;;;;;;;39.30;19.17;;;5.20;99.90;;;;;;8399437;28;20189;-68
2022/11/04 06:30:22;;;;;;;35.27;20.73;;;5.20;99.90;;;;;;8400645;28;20221;-68
2022/11/04 06:34:23;;;;;;;40.53;22.90;;;5.30;99.90;;;;;;8417990;28;20266;-69
2022/11/04 06:38:24;;;;;;;43.30;23.03;;;5.40;99.90;;;;;;8399629;28;20246;-69
2022/11/04 06:42:26;;;;;;;36.00;20.73;;;5.40;99.90;;;;;;8398808;28;20180;-69
2022/11/04 06:46:30;;;;;;;32.40;20.17;;;5.40;99.90;;;;;;8415349;28;20227;-69
2022/11/04 06:50:31;;;;;;;50.03;27.63;;;5.50;99.90;;;;;;8404831;28;20238;-68
2022/11/04 06:54:32;;;;;;;43.40;25.07;;;5.60;99.90;;;;;;8392058;28;20224;-68
2022/11/04 06:58:33;;;;;;;68.27;34.70;;;5.70;99.90;;;;;;8413364;28;20207;-68
2022/11/04 07:02:35;;;;;;;61.23;31.40;;;5.70;99.90;;;;;;8398528;28;20578;-68
2022/11/04 07:06:35;;;;;;;44.77;27.13;;;5.80;99.90;;;;;;8396272;28;20180;-69
2022/11/04 07:10:36;;;;;;;39.13;23.20;;;5.90;99.90;;;;;;8397063;28;20220;-68
2022/11/04 07:14:37;;;;;;;36.10;23.83;;;5.90;99.90;;;;;;8395934;28;20649;-68
2022/11/04 07:18:38;;;;;;;43.73;26.57;;;5.90;99.90;;;;;;8396188;28;20214;-69
2022/11/04 07:22:39;;;;;;;40.70;25.43;;;6.10;99.90;;;;;;8416872;28;20189;-69
2022/11/04 07:26:41;;;;;;;34.50;21.53;;;6.30;99.90;;;;;;8397055;28;20184;-68
2022/11/04 07:30:42;;;;;;;30.10;19.10;;;6.50;99.90;;;;;;8397103;28;20212;-69
2022/11/04 07:34:42;;;;;;;33.20;20.70;;;6.70;99.90;;;;;;8397932;28;20188;-69
2022/11/04 07:38:44;;;;;;;43.00;25.47;;;6.90;99.90;;;;;;8391973;28;20295;-69
2022/11/04 07:42:44;;;;;;;40.93;24.67;;;7.00;99.90;;;;;;8397733;28;20184;-69
2022/11/04 07:46:45;;;;;;;43.90;25.77;;;7.00;99.90;;;;;;8413079;28;20195;-69
2022/11/04 07:50:46;;;;;;;46.00;25.77;;;7.10;99.90;;;;;;8395528;28;20188;-69
2022/11/04 07:54:47;;;;;;;45.10;23.97;;;7.20;99.90;;;;;;8398238;28;20227;-68
2022/11/04 07:58:47;;;;;;;42.33;25.53;;;7.40;99.90;;;;;;8392546;28;20216;-69
2022/11/04 08:02:48;;;;;;;44.63;26.30;;;7.40;99.90;;;;;;8397062;28;20623;-70
2022/11/04 08:06:49;;;;;;;43.13;23.97;;;7.50;99.90;;;;;;8415729;28;20187;-69
2022/11/04 08:10:59;;;;;;;47.40;27.00;;;7.70;99.90;;;;;;8406034;28;20188;-69
2022/11/04 08:15:00;;;;;;;55.50;32.30;;;7.90;99.90;;;;;;8414918;28;20192;-70
2022/11/04 08:19:01;;;;;;;52.03;32.80;;;8.20;99.90;;;;;;8415029;28;20254;-69
2022/11/04 08:23:02;;;;;;;59.50;34.40;;;8.50;99.90;;;;;;8420161;28;20190;-69
2022/11/04 08:27:07;;;;;;;45.87;31.10;;;8.80;99.90;;;;;;8394040;28;20184;-69
2022/11/04 08:31:12;;;;;;;42.37;27.63;;;9.20;99.90;;;;;;8420261;28;20188;-69
2022/11/04 08:35:13;;;;;;;41.60;26.53;;;9.50;99.90;;;;;;8403023;28;20208;-68
2022/11/04 08:39:14;;;;;;;33.13;21.67;;;9.60;99.90;;;;;;8403804;28;20239;-70
2022/11/04 08:43:15;;;;;;;31.83;22.13;;;9.70;99.90;;;;;;8421576;28;20184;-69
2022/11/04 08:47:15;;;;;;;27.53;18.63;;;9.90;99.90;;;;;;8420211;28;20194;-69
2022/11/04 08:51:20;;;;;;;29.00;20.07;;;10.20;99.90;;;;;;8401603;28;20289;-69
2022/11/04 08:55:21;;;;;;;38.10;25.93;;;10.60;99.90;;;;;;8420479;28;20239;-69
2022/11/04 08:59:23;;;;;;;62.50;33.13;;;11.00;99.90;;;;;;8397272;28;20208;-69
2022/11/04 09:03:24;;;;;;;47.27;32.47;;;11.20;99.90;;;;;;8397896;28;20209;-70
2022/11/04 09:07:25;;;;;;;43.17;29.77;;;11.40;99.90;;;;;;8415117;28;20219;-70
2022/11/04 09:11:26;;;;;;;56.20;36.80;;;11.30;99.90;;;;;;8397190;28;20252;-70
2022/11/04 09:15:26;;;;;;;60.20;34.00;;;11.30;99.90;;;;;;8417277;28;20204;-70
2022/11/04 09:19:27;;;;;;;111.77;48.83;;;11.40;99.90;;;;;;8418271;28;20271;-70
2022/11/04 09:23:28;;;;;;;275.33;128.00;;;11.60;99.90;;;;;;8401934;28;20190;-70
2022/11/04 09:27:29;;;;;;;91.63;46.77;;;12.00;99.90;;;;;;8400224;28;20275;-70
2022/11/04 09:31:30;;;;;;;44.93;28.93;;;12.40;99.90;;;;;;8409336;28;20184;-70
2022/11/04 09:35:31;;;;;;;33.00;19.73;;;12.80;99.90;;;;;;8419104;28;20205;-70
2022/11/04 09:39:32;;;;;;;20.67;15.00;;;13.10;99.90;;;;;;8417969;28;20184;-68
2022/11/04 09:43:40;;;;;;;19.03;13.00;;;13.30;99.90;;;;;;8399398;28;20444;-70
2022/11/04 09:47:44;;;;;;;17.57;13.10;;;13.50;91.50;;;;;;8400768;28;20193;-71
2022/11/04 09:51:47;;;;;;;16.90;12.83;;;13.70;99.90;;;;;;8398355;28;20184;-69
2022/11/04 09:55:59;;;;;;;23.47;14.83;;;13.70;99.90;;;;;;8406979;28;20205;-69
2022/11/04 10:00:00;;;;;;;31.20;14.50;;;13.80;99.90;;;;;;8403502;28;20208;-70
2022/11/04 10:04:09;;;;;;;18.10;12.87;;;13.80;99.90;;;;;;8396124;28;20193;-70
2022/11/04 10:08:40;;;;;;;20.60;14.40;;;13.80;99.90;;;;;;8398345;28;20192;-70
2022/11/04 10:12:48;;;;;;;25.47;16.77;;;13.80;99.90;;;;;;8401426;28;20483;-70
2022/11/04 10:17:08;;;;;;;20.33;15.90;;;13.60;99.90;;;;;;8416432;28;20197;-71
2022/11/04 10:21:26;;;;;;;25.87;18.27;;;13.40;1.00;;;;;;8415552;28;20181;-69
2022/11/04 10:25:46;;;;;;;29.23;19.60;;;13.00;99.90;;;;;;8395760;28;20451;-70
2022/11/04 10:29:53;;;;;;;27.40;19.13;;;12.60;1.00;;;;;;8393702;28;20184;-71
2022/11/04 10:34:14;;;;;;;27.67;18.80;;;12.30;1.00;;;;;;8414496;28;20220;-71
2022/11/04 10:38:17;;;;;;;22.70;17.10;;;12.10;99.90;;;;;;8383187;28;20290;-71
2022/11/04 10:42:21;;;;;;;29.87;19.63;;;12.10;1.00;;;;;;8414005;28;20207;-70
2022/11/04 10:46:40;;;;;;;25.70;18.07;;;12.00;1.00;;;;;;8409705;28;20279;-70
2022/11/04 10:50:51;;;;;;;28.07;20.30;;;12.10;99.90;;;;;;8394721;28;20189;-71
2022/11/04 10:54:51;;;;;;;25.30;19.03;;;12.10;99.90;;;;;;8412882;28;20180;-71
2022/11/04 10:58:54;;;;;;;27.37;19.63;;;12.10;56.90;;;;;;8406216;28;20212;-71
2022/11/04 11:02:54;;;;;;;25.63;18.73;;;12.10;84.30;;;;;;8394198;28;20518;-71
2022/11/04 11:06:58;;;;;;;23.23;17.27;;;12.10;99.90;;;;;;8392355;28;20183;-71
2022/11/04 11:10:59;;;;;;;23.27;17.43;;;12.00;99.90;;;;;;8412991;28;20345;-71
2022/11/04 11:15:37;;;;;;;25.87;20.33;;;12.00;99.90;;;;;;8413076;28;20196;-71
2022/11/04 11:19:49;;;;;;;31.03;22.93;;;12.00;99.90;;;;;;8406923;28;20192;-70
2022/11/04 11:23:53;;;;;;;40.23;28.40;;;12.00;99.90;;;;;;8413068;28;20181;-71
2022/11/04 11:27:56;;;;;;;31.13;20.80;;;12.00;1.00;;;;;;8392990;28;20185;-71
2022/11/04 11:31:59;;;;;;;37.30;27.20;;;12.00;1.00;;;;;;8397648;28;20230;-71
2022/11/04 11:36:11;;;;;;;33.43;24.33;;;12.10;99.90;;;;;;8411210;28;20234;-70
2022/11/04 11:40:30;;;;;;;23.87;17.17;;;12.30;99.90;;;;;;8414610;28;20462;-70
2022/11/04 11:45:15;;;;;;;24.33;18.33;;;12.30;1.00;;;;;;8396556;28;20188;-71
2022/11/04 11:49:35;;;;;;;21.37;17.20;;;12.40;99.90;;;;;;8364522;28;20192;-69
2022/11/04 11:53:39;;;;;;;35.20;23.00;;;12.50;99.90;;;;;;8396917;28;20242;-71
2022/11/04 11:58:02;;;;;;;45.27;29.17;;;12.60;14.70;;;;;;8398387;28;20256;-70
2022/11/04 12:02:28;;;;;;;41.80;29.60;;;12.60;1.00;;;;;;8414472;28;20431;-71
2022/11/04 12:06:51;;;;;;;40.60;30.00;;;12.60;1.00;;;;;;8395456;28;20195;-71
2022/11/04 12:11:35;;;;;;;42.33;28.40;;;12.30;1.00;;;;;;8415139;28;20188;-70
2022/11/04 12:15:57;;;;;;;32.83;23.50;;;12.20;99.90;;;;;;8391199;28;20320;-71
2022/11/04 12:20:17;;;;;;;35.83;25.20;;;12.00;99.90;;;;;;8414125;28;20241;-69
2022/11/04 12:24:21;;;;;;;69.80;44.20;;;12.00;1.00;;;;;;8412995;28;20181;-71
2022/11/04 12:28:41;;;;;;;44.50;31.33;;;11.90;1.00;;;;;;8412242;28;20190;-70
2022/11/04 12:32:57;;;;;;;91.20;45.83;;;11.80;56.50;;;;;;8393862;28;20180;-71
2022/11/04 12:37:20;;;;;;;33.37;23.17;;;11.80;99.90;;;;;;8400607;28;20231;-71
2022/11/04 12:41:36;;;;;;;33.57;23.17;;;11.50;99.90;;;;;;8391712;28;20222;-70
2022/11/04 12:45:49;;;;;;;29.93;21.50;;;11.40;99.90;;;;;;8414539;28;20183;-70
2022/11/04 12:50:16;;;;;;;24.57;18.27;;;11.30;1.00;;;;;;8391951;28;20185;-71
2022/11/04 12:54:45;;;;;;;27.43;19.20;;;11.20;99.90;;;;;;8412834;28;20199;-70
2022/11/04 12:58:54;;;;;;;25.63;18.87;;;11.10;1.00;;;;;;8408533;28;20222;-71
2022/11/04 13:03:25;;;;;;;24.20;19.47;;;11.00;13.10;;;;;;8406883;28;20290;-71
2022/11/04 13:07:39;;;;;;;29.87;20.47;;;11.00;99.90;;;;;;8409772;28;20225;-71
2022/11/04 13:12:08;;;;;;;24.17;16.50;;;11.00;1.00;;;;;;8398292;28;20180;-71
2022/11/04 13:16:11;;;;;;;26.63;18.17;;;11.10;99.90;;;;;;8397379;28;20208;-70
2022/11/04 13:20:14;;;;;;;24.57;16.63;;;11.10;99.90;;;;;;8415492;28;20183;-70
2022/11/04 13:24:30;;;;;;;26.37;17.97;;;11.10;99.90;;;;;;8397222;28;20509;-71
2022/11/04 13:28:31;;;;;;;28.57;19.20;;;11.20;1.00;;;;;;8414232;28;20264;-71
2022/11/04 13:32:42;;;;;;;24.63;17.77;;;11.20;1.00;;;;;;8416653;28;20195;-70
2022/11/04 13:36:57;;;;;;;20.83;14.93;;;11.20;1.00;;;;;;8415041;28;20319;-70
2022/11/04 13:41:22;;;;;;;21.17;14.80;;;11.20;1.00;;;;;;8395489;28;20204;-70
2022/11/04 13:45:23;;;;;;;21.57;15.83;;;11.20;1.00;;;;;;8418814;28;20267;-69
2022/11/04 13:49:35;;;;;;;20.43;15.60;;;11.20;1.00;;;;;;8414462;28;20191;-70
2022/11/04 13:53:56;;;;;;;21.83;15.23;;;11.30;1.00;;;;;;8419030;28;20229;-70
2022/11/04 13:58:00;;;;;;;25.93;18.00;;;11.30;1.00;;;;;;8395377;28;20302;-69
2022/11/04 14:02:10;;;;;;;23.10;16.73;;;11.30;1.00;;;;;;8400049;28;20385;-69
2022/11/04 14:06:11;;;;;;;21.93;15.87;;;11.30;23.60;;;;;;8416469;28;20322;-70
2022/11/04 14:10:43;;;;;;;24.63;17.67;;;11.30;99.90;;;;;;8417744;28;20188;-70
2022/11/04 14:14:51;;;;;;;35.03;21.33;;;11.30;99.90;;;;;;8414937;28;20180;-69
2022/11/04 14:18:53;;;;;;;35.10;22.37;;;11.30;99.90;;;;;;8416611;28;20207;-70
2022/11/04 14:22:59;;;;;;;43.30;27.07;;;11.30;99.90;;;;;;8398798;28;20186;-71
2022/11/04 14:27:00;;;;;;;37.00;23.83;;;11.20;99.90;;;;;;8395874;28;20183;-70
2022/11/04 14:31:10;;;;;;;35.37;22.70;;;11.20;99.90;;;;;;8398248;28;20191;-70
2022/11/04 14:35:17;;;;;;;34.17;24.60;;;11.10;99.90;;;;;;8417112;28;20196;-71
2022/11/04 14:39:26;;;;;;;35.10;23.60;;;11.10;99.90;;;;;;8410798;28;20202;-71
2022/11/04 14:43:32;;;;;;;30.83;22.63;;;11.10;99.90;;;;;;8412809;28;20203;-71
2022/11/04 14:47:34;;;;;;;30.23;22.63;;;11.20;96.10;;;;;;8412308;28;20196;-71
2022/11/04 14:51:40;;;;;;;27.17;20.60;;;11.20;65.10;;;;;;8410334;28;20483;-70
2022/11/04 14:55:40;;;;;;;51.27;32.30;;;11.20;18.70;;;;;;8392223;28;20262;-71
2022/11/04 14:59:41;;;;;;;41.20;26.37;;;11.20;1.00;;;;;;8389407;28;20599;-70
2022/11/04 15:03:45;;;;;;;53.43;29.87;;;11.10;99.90;;;;;;8394888;28;20204;-70
2022/11/04 15:07:46;;;;;;;32.33;21.97;;;10.90;99.90;;;;;;8411741;28;20188;-70
2022/11/04 15:16:27;;;;;;;22.70;15.67;;;10.80;99.90;;;;;;8411323;28;20245;-71
2022/11/04 15:20:30;;;;;;;23.60;15.47;;;10.80;99.90;;;;;;8395579;28;20172;-70
2022/11/04 15:24:32;;;;;;;28.43;16.97;;;10.90;99.90;;;;;;8410124;28;20183;-71
2022/11/04 15:28:39;;;;;;;22.20;15.10;;;10.90;99.90;;;;;;8396950;28;20179;-71
2022/11/04 15:32:40;;;;;;;23.30;16.73;;;10.90;99.90;;;;;;8395948;28;20195;-70
2022/11/04 15:36:42;;;;;;;22.47;14.77;;;10.80;99.90;;;;;;8396312;28;20194;-71
2022/11/04 15:40:45;;;;;;;23.50;16.10;;;10.80;99.90;;;;;;8415668;28;20244;-71
2022/11/04 15:44:52;;;;;;;23.07;15.87;;;10.80;99.90;;;;;;8395510;28;20235;-70
2022/11/04 15:49:05;;;;;;;20.33;15.17;;;10.80;99.90;;;;;;8397437;28;20186;-71
2022/11/04 15:53:08;;;;;;;23.60;15.70;;;10.70;99.90;;;;;;8395343;28;20192;-72
2022/11/04 15:57:17;;;;;;;35.93;21.17;;;10.70;99.90;;;;;;8413635;28;20213;-71
2022/11/04 16:01:18;;;;;;;23.37;16.70;;;10.70;99.90;;;;;;8414572;28;20203;-72
2022/11/04 16:05:21;;;;;;;24.50;17.33;;;10.60;99.90;;;;;;8397366;28;20246;-70
2022/11/04 16:09:26;;;;;;;23.03;17.97;;;10.60;99.90;;;;;;8397612;28;20176;-71
2022/11/04 16:13:27;;;;;;;24.97;17.13;;;10.50;99.90;;;;;;8409315;28;20182;-71
2022/11/04 16:17:28;;;;;;;25.33;17.73;;;10.50;99.90;;;;;;8413991;28;20209;-71
2022/11/04 16:21:34;;;;;;;24.80;18.30;;;10.50;99.90;;;;;;8413303;28;20296;-71
2022/11/04 16:25:35;;;;;;;26.87;19.17;;;10.40;99.90;;;;;;8410980;28;20189;-72
2022/11/04 16:29:37;;;;;;;24.13;17.10;;;10.40;99.90;;;;;;8393695;28;20252;-73
2022/11/04 16:33:37;;;;;;;32.37;18.23;;;10.40;99.90;;;;;;8415290;28;20527;-71
2022/11/04 16:37:38;;;;;;;24.40;16.77;;;10.30;99.90;;;;;;8415000;28;20217;-72
2022/11/04 16:41:40;;;;;;;24.00;17.47;;;10.30;99.90;;;;;;8395542;28;20192;-72
2022/11/04 16:45:45;;;;;;;25.20;17.70;;;10.30;99.90;;;;;;8420908;28;20196;-72
2022/11/04 16:49:46;;;;;;;29.87;19.23;;;10.30;99.90;;;;;;8419425;28;20236;-72
2022/11/04 16:53:48;;;;;;;28.70;20.40;;;10.30;99.90;;;;;;8404285;28;20217;-72
2022/11/04 16:57:54;;;;;;;32.20;21.27;;;10.30;99.90;;;;;;8420974;28;20212;-71
2022/11/04 17:01:54;;;;;;;29.00;19.87;;;10.30;99.90;;;;;;8403520;28;20176;-72
2022/11/04 17:05:56;;;;;;;29.03;19.93;;;10.30;99.90;;;;;;8402307;28;20247;-72
2022/11/04 17:09:57;;;;;;;27.97;20.10;;;10.30;99.90;;;;;;8399059;28;20207;-72
2022/11/04 17:13:57;;;;;;;26.53;18.00;;;10.30;99.90;;;;;;8397512;28;20189;-72
2022/11/04 17:17:58;;;;;;;24.80;17.10;;;10.30;99.90;;;;;;8409517;28;20213;-72
2022/11/04 17:22:01;;;;;;;26.47;18.67;;;10.30;99.90;;;;;;8402928;28;20283;-72
2022/11/04 17:26:02;;;;;;;25.97;18.00;;;10.30;99.90;;;;;;8402256;28;20204;-71
2022/11/04 17:30:03;;;;;;;29.13;19.43;;;10.30;99.90;;;;;;8420474;28;20186;-71
2022/11/04 17:34:04;;;;;;;24.27;18.33;;;10.30;99.90;;;;;;8403092;28;20198;-71
2022/11/04 17:38:05;;;;;;;29.20;19.27;;;10.30;99.90;;;;;;8400647;28;20216;-71
2022/11/04 17:46:40;;;;;;;26.60;18.13;;;10.20;99.90;;;;;;8417374;28;20204;-72
2022/11/04 17:50:41;;;;;;;30.50;19.80;;;10.20;99.90;;;;;;8401276;28;20193;-72
2022/11/04 17:54:42;;;;;;;24.67;17.73;;;10.20;99.90;;;;;;8401896;28;20231;-71
2022/11/04 17:58:42;;;;;;;29.53;19.10;;;10.20;99.90;;;;;;8416633;28;20323;-71
2022/11/04 18:02:43;;;;;;;31.83;20.57;;;10.20;99.90;;;;;;8401110;28;20201;-70
2022/11/04 18:06:45;;;;;;;31.73;20.00;;;10.20;99.90;;;;;;8400127;28;20185;-70
2022/11/04 18:10:45;;;;;;;35.33;22.47;;;10.10;99.90;;;;;;8417026;28;20184;-70
2022/11/04 18:14:46;;;;;;;32.80;20.97;;;10.10;99.90;;;;;;8398772;28;20177;-71
2022/11/04 18:18:47;;;;;;;36.53;21.33;;;10.10;99.90;;;;;;8399798;28;20213;-70
2022/11/04 18:22:48;;;;;;;34.40;21.67;;;10.10;99.90;;;;;;8418797;28;20197;-71
2022/11/04 18:26:49;;;;;;;35.10;21.13;;;10.00;99.90;;;;;;8401727;28;20192;-70
2022/11/04 18:30:51;;;;;;;30.03;20.57;;;10.00;99.90;;;;;;8400533;28;20185;-70
2022/11/04 18:34:52;;;;;;;27.13;17.97;;;9.90;99.90;;;;;;8400536;28;20180;-71
2022/11/04 18:38:53;;;;;;;26.97;19.37;;;9.90;99.90;;;;;;8398668;28;20212;-69
2022/11/04 18:42:55;;;;;;;30.00;19.73;;;9.90;99.90;;;;;;8399902;28;20192;-69
2022/11/04 18:46:56;;;;;;;30.77;19.83;;;9.90;99.90;;;;;;8418692;28;20184;-70
2022/11/04 18:50:59;;;;;;;32.50;21.73;;;9.80;99.90;;;;;;8413547;28;20264;-71
2022/11/04 18:55:00;;;;;;;28.30;18.67;;;9.80;99.90;;;;;;8412564;28;20191;-71
2022/11/04 18:59:00;;;;;;;28.73;18.90;;;9.80;99.90;;;;;;8391782;28;20208;-71
2022/11/04 19:03:02;;;;;;;27.33;18.57;;;9.70;99.90;;;;;;8414208;28;20193;-71
2022/11/04 19:07:03;;;;;;;30.57;18.57;;;9.70;99.90;;;;;;8413512;28;20227;-71
2022/11/04 19:11:18;;;;;;;26.53;17.07;;;9.70;99.90;;;;;;8388782;28;20180;-70
2022/11/04 19:15:19;;;;;;;22.70;16.07;;;9.70;99.90;;;;;;8395667;28;20184;-70
2022/11/04 19:19:20;;;;;;;28.13;17.60;;;9.70;99.90;;;;;;8418344;28;20274;-70
2022/11/04 19:23:21;;;;;;;21.73;15.90;;;9.70;99.90;;;;;;8419801;28;20176;-71
2022/11/04 19:27:23;;;;;;;24.53;16.50;;;9.70;99.90;;;;;;8398972;28;20261;-68
2022/11/04 19:31:28;;;;;;;20.53;14.63;;;9.60;99.90;;;;;;8413584;28;20211;-70
2022/11/04 19:35:29;;;;;;;23.90;15.63;;;9.60;99.90;;;;;;8414585;28;20192;-70
2022/11/04 19:39:29;;;;;;;22.50;15.20;;;9.60;99.90;;;;;;8397215;28;20227;-69
2022/11/04 19:43:31;;;;;;;25.90;15.80;;;9.50;99.90;;;;;;8396874;28;20191;-69
2022/11/04 19:47:32;;;;;;;18.17;13.63;;;9.50;99.90;;;;;;8413140;28;20192;-68
2022/11/04 19:51:34;;;;;;;15.97;12.10;;;9.50;99.90;;;;;;8395038;28;20430;-70
2022/11/04 19:55:35;;;;;;;16.80;11.40;;;9.40;99.90;;;;;;8412230;28;20192;-70
2022/11/04 19:59:36;;;;;;;14.27;10.93;;;9.40;99.90;;;;;;8388893;28;20204;-71
2022/11/04 20:03:38;;;;;;;13.13;10.03;;;9.40;99.90;;;;;;8396048;28;20582;-70
2022/11/04 20:07:39;;;;;;;13.03;10.43;;;9.40;99.90;;;;;;8394910;28;20195;-70
2022/11/04 20:16:01;;;;;;;8.97;7.00;;;9.30;99.90;;;;;;8414791;28;20231;-69
2022/11/04 20:20:03;;;;;;;7.80;6.53;;;9.30;99.90;;;;;;8411671;28;20196;-70
2022/11/04 20:24:07;;;;;;;9.57;5.97;;;9.20;99.90;;;;;;8392342;28;20191;-70
2022/11/04 20:28:08;;;;;;;6.07;4.73;;;9.20;99.90;;;;;;8410163;28;20203;-71
2022/11/04 20:32:08;;;;;;;5.43;4.93;;;9.10;99.90;;;;;;8393636;28;20192;-68
2022/11/04 20:36:10;;;;;;;6.17;4.77;;;9.10;99.90;;;;;;8391117;28;20670;-69
2022/11/04 20:40:12;;;;;;;5.83;4.47;;;9.10;99.90;;;;;;8393451;28;20176;-69
2022/11/04 20:44:14;;;;;;;9.33;6.37;;;9.10;99.90;;;;;;8413185;28;20245;-70
2022/11/04 20:48:15;;;;;;;8.53;4.90;;;9.10;99.90;;;;;;8412854;28;20249;-70
2022/11/04 20:52:16;;;;;;;5.53;4.10;;;9.10;99.90;;;;;;8396460;28;20188;-69
2022/11/04 20:56:19;;;;;;;5.63;4.70;;;9.00;99.90;;;;;;8410629;28;20208;-68
2022/11/04 21:00:20;;;;;;;5.40;4.90;;;9.00;99.90;;;;;;8394695;28;20244;-70
2022/11/04 21:04:21;;;;;;;5.00;4.50;;;8.90;99.90;;;;;;8410358;28;20200;-69
2022/11/04 21:08:22;;;;;;;5.30;4.43;;;8.90;99.90;;;;;;8393709;28;20188;-69
2022/11/04 21:12:23;;;;;;;6.70;5.33;;;8.90;99.90;;;;;;8392819;28;20191;-69
2022/11/04 21:16:25;;;;;;;6.23;5.63;;;8.90;99.90;;;;;;8390946;28;20682;-69
2022/11/04 21:20:26;;;;;;;6.30;5.63;;;8.90;99.90;;;;;;8393798;28;20187;-70
2022/11/04 21:24:27;;;;;;;8.07;6.13;;;8.90;99.90;;;;;;8412316;28;20242;-69
2022/11/04 21:28:27;;;;;;;8.50;6.10;;;8.80;99.90;;;;;;8414749;28;20267;-69